Centerville, MA

2:07 AM EDT on September 19, 2014 (GMT -0400)
Barnstable Municipal-Boardman-Polando Field | Change Station
CLOSE
Current Station
Airport
Location: Hyannis,
Elevation: 52 ft
Nearby Weather Stations

Elev 52 ft 41.67 °N, 70.28 °W | Updated 11 minutes ago

Overcast
Overcast
60 °F
Feels Like 60 °F
N
14
Wind Variable Wind from North
Gusts 24 mph

Today
High -- | Low -- °F
--% Chance of Precip.
Yesterday
High -- | Low -- °F
Precip. -- in
6:25 AM 6:43 PM
Waning Crescent, 21% visible
Pressure 30.13 in
Visibility 10.0 miles
Clouds Few 4100 ft
Overcast 6000 ft
Dew Point 46 °F
Humidity 60%
Rainfall 0.00 in
Snow Depth Not available.
UV 0 out of 12
Pollen 3.60 out of 12
Air Quality Not available.
Flu Activity Not available.
METAR KHYA 190556Z 01012G21KT 10SM FEW041 OVC060 16/08 A3013 RMK AO2 SLP202 T01560078 10178 20144 51020

More Conditions Fewer Conditions

Pressure 30.13 in
Visibility 10.0 miles
Clouds Few 4100 ft
Overcast 6000 ft
Dew Point 46 °F
Humidity 60%
Rainfall 0.00 in
Snow Depth Not available.
UV 0 out of 12
Pollen 3.60 out of 12
Air Quality Not available.
Flu Activity Not available.
METAR KHYA 190556Z 01012G21KT 10SM FEW041 OVC060 16/08 A3013 RMK AO2 SLP202 T01560078 10178 20144 51020

More Conditions Fewer Conditions

10-Day Weather Forecast

Almanac

Astronomy

Sep. 19, 2014 Rise Set
Actual Time 6:25 AM EDT 6:43 PM EDT
Civil Twilight 5:57 AM EDT 7:11 PM EDT
Nautical Twilight 5:25 AM EDT 7:44 PM EDT
Astronomical Twilight 4:51 AM EDT 8:17 PM EDT
Moon 2:05 AM EDT 4:13 PM EDT
Length of Visible Light 13h 13m
Length of Day
12h 18m
Tomorrow will be 2m 47s shorter.
Waning Crescent, 21% of the Moon is Illuminated
Today
Waning Crescent
Sep 24
New
Oct 1
First Quarter
Oct 8
Full
Oct 15
Last Quarter

Today's Extremes

State Highs State Lows

Community

WunderPhotos

Upload Photos

1,754,575 photos uploaded!

Nearby

Air Quality

  Air Quality AQ Index Pollutant
Friday Good
PM2.5
Friday Good
OZONE

Snow Depth

Station Depth Elevation
No new snow has been reported.

Earthquake Activity

City Distance Mag. Time & Date
No recent earthquake activity has been reported nearby.
Minimum magnitude displayed is 2.5.

Coastal Water Temperatures

Place Temperature
Nantucket Island, MA 69.1 °F
Woods Hole, MA 69.1 °F
Fall River, MA 71.1 °F
Boston, MA 64.9 °F

Nearby Weather Stations